createdAt,value
2022-11-24T00:01:16.700Z,8.10
2022-11-24T00:03:45.365Z,8.10
2022-11-24T00:06:14.432Z,8.10
2022-11-24T00:08:43.351Z,8.10
2022-11-24T00:11:16.100Z,8.00
2022-11-24T00:13:44.657Z,8.10
2022-11-24T00:16:12.634Z,8.00
2022-11-24T00:18:41.430Z,8.00
2022-11-24T00:21:09.314Z,8.00
2022-11-24T00:23:37.608Z,7.90
2022-11-24T00:26:06.461Z,7.90
2022-11-24T00:28:35.042Z,7.90
2022-11-24T00:31:03.997Z,7.90
2022-11-24T00:33:32.457Z,7.90
2022-11-24T00:36:00.998Z,7.90
2022-11-24T00:38:28.886Z,7.90
2022-11-24T00:40:56.769Z,7.90
2022-11-24T00:43:24.878Z,7.90
2022-11-24T00:45:52.840Z,7.90
2022-11-24T00:48:20.956Z,7.90
2022-11-24T00:50:56.546Z,7.90
2022-11-24T00:53:24.804Z,7.80
2022-11-24T00:55:53.212Z,7.90
2022-11-24T00:58:21.245Z,7.90
2022-11-24T01:00:49.444Z,7.90
2022-11-24T01:03:17.959Z,7.80
2022-11-24T01:05:46.321Z,7.80
2022-11-24T01:08:16.746Z,7.80
2022-11-24T01:10:44.643Z,7.80
2022-11-24T01:13:13.658Z,7.80
2022-11-24T01:15:43.995Z,7.70
2022-11-24T01:18:13.616Z,7.70
2022-11-24T01:20:41.586Z,7.70
2022-11-24T01:23:09.610Z,7.70
2022-11-24T01:25:39.629Z,7.70
2022-11-24T01:28:07.772Z,7.60
2022-11-24T01:30:35.783Z,7.60
2022-11-24T01:33:03.768Z,7.50
2022-11-24T01:35:31.633Z,7.60
2022-11-24T01:38:02.087Z,7.60
2022-11-24T01:40:32.250Z,7.50
2022-11-24T01:43:00.131Z,7.50
2022-11-24T01:45:36.475Z,7.50
2022-11-24T01:48:05.935Z,7.40
2022-11-24T01:50:34.384Z,7.50
2022-11-24T01:53:02.505Z,7.40
2022-11-24T01:55:34.982Z,7.50
2022-11-24T01:58:08.202Z,7.50
2022-11-24T02:00:39.050Z,7.50
2022-11-24T02:03:08.606Z,7.60
2022-11-24T02:05:41.015Z,7.60
2022-11-24T02:08:14.003Z,7.60
2022-11-24T02:10:42.472Z,7.60
2022-11-24T02:13:10.346Z,7.60
2022-11-24T02:15:38.489Z,7.70
2022-11-24T02:18:06.472Z,7.70
2022-11-24T02:20:34.576Z,7.70
2022-11-24T02:23:08.678Z,7.70
2022-11-24T02:25:39.776Z,7.70
2022-11-24T02:28:10.575Z,7.70
2022-11-24T02:30:38.520Z,7.70
2022-11-24T02:33:06.516Z,7.70
2022-11-24T02:35:34.427Z,7.70
2022-11-24T02:38:02.261Z,7.60
2022-11-24T02:40:31.361Z,7.60
2022-11-24T02:43:04.360Z,7.60
2022-11-24T02:45:32.284Z,7.60
2022-11-24T02:48:00.372Z,7.50
2022-11-24T02:50:28.354Z,7.50
2022-11-24T02:52:56.389Z,7.50
2022-11-24T02:55:25.170Z,7.40
2022-11-24T02:57:53.070Z,7.40
2022-11-24T03:00:22.586Z,7.40
2022-11-24T03:02:50.694Z,7.40
2022-11-24T03:05:18.822Z,7.40
2022-11-24T03:07:46.749Z,7.40
2022-11-24T03:10:14.754Z,7.30
2022-11-24T03:12:42.694Z,7.30
2022-11-24T03:15:10.806Z,7.20
2022-11-24T03:17:38.954Z,7.20
2022-11-24T03:20:07.127Z,7.20
2022-11-24T03:22:35.100Z,7.20
2022-11-24T03:25:03.127Z,7.10
2022-11-24T03:27:31.284Z,7.10
2022-11-24T03:29:59.212Z,7.10
2022-11-24T03:32:27.112Z,7.10
2022-11-24T03:34:55.064Z,7.10
2022-11-24T03:37:22.976Z,7.10
2022-11-24T03:39:50.911Z,7.10
2022-11-24T03:42:19.705Z,7.00
2022-11-24T03:44:47.724Z,7.00
2022-11-24T03:47:15.592Z,7.10
2022-11-24T03:49:43.724Z,7.10
2022-11-24T03:52:11.599Z,7.10
2022-11-24T03:54:39.540Z,7.10
2022-11-24T03:57:07.564Z,7.10
2022-11-24T03:59:35.489Z,7.20
2022-11-24T04:02:03.528Z,7.20
2022-11-24T04:04:31.587Z,7.20
2022-11-24T04:07:00.593Z,7.20
2022-11-24T04:09:28.515Z,7.20
2022-11-24T04:12:15.319Z,7.20
2022-11-24T04:14:43.345Z,7.20
2022-11-24T04:17:11.215Z,7.20
2022-11-24T04:19:39.235Z,7.30
2022-11-24T04:22:07.200Z,7.30
2022-11-24T04:24:35.338Z,7.30
2022-11-24T04:27:03.415Z,7.30
2022-11-24T04:29:31.353Z,7.30
2022-11-24T04:31:59.305Z,7.30
2022-11-24T04:34:27.252Z,7.30
2022-11-24T04:36:55.235Z,7.30
2022-11-24T04:39:28.805Z,7.30
2022-11-24T04:41:56.873Z,7.30
2022-11-24T04:44:24.922Z,7.30
2022-11-24T04:46:52.796Z,7.30
2022-11-24T04:49:20.832Z,7.30
2022-11-24T04:51:48.655Z,7.30
2022-11-24T04:54:16.689Z,7.30
2022-11-24T04:56:44.677Z,7.30
2022-11-24T04:59:15.711Z,7.30
2022-11-24T05:01:43.930Z,7.30
2022-11-24T05:04:12.869Z,7.20
2022-11-24T05:06:40.939Z,7.20
2022-11-24T05:09:09.417Z,7.20
2022-11-24T05:11:37.350Z,7.10
2022-11-24T05:14:05.361Z,7.10
2022-11-24T05:16:33.385Z,7.00
2022-11-24T05:19:01.457Z,7.00
2022-11-24T05:21:32.519Z,7.00
2022-11-24T05:24:00.547Z,7.00
2022-11-24T05:26:28.513Z,7.00
2022-11-24T05:28:56.528Z,7.00
2022-11-24T05:31:24.478Z,7.00
2022-11-24T05:33:52.757Z,7.00
2022-11-24T05:36:39.327Z,7.00
2022-11-24T05:39:10.620Z,7.00
2022-11-24T05:41:38.508Z,7.00
2022-11-24T05:44:06.639Z,7.10
2022-11-24T05:46:34.525Z,7.20
2022-11-24T05:49:02.524Z,7.20
2022-11-24T05:51:30.883Z,7.30
2022-11-24T05:53:58.913Z,7.20
2022-11-24T05:56:26.781Z,7.20
2022-11-24T05:58:55.541Z,7.30
2022-11-24T06:01:23.450Z,7.30
2022-11-24T06:03:51.413Z,7.30
2022-11-24T06:06:19.319Z,7.40
2022-11-24T06:08:47.272Z,7.40
2022-11-24T06:11:18.348Z,7.50
2022-11-24T06:13:47.236Z,7.50
2022-11-24T06:16:15.496Z,7.50
2022-11-24T06:18:43.670Z,7.60
2022-11-24T06:21:12.166Z,7.70
2022-11-24T06:23:41.090Z,7.90
2022-11-24T06:26:09.643Z,8.10
2022-11-24T06:28:37.729Z,8.40
2022-11-24T06:31:06.130Z,8.70
2022-11-24T06:33:34.902Z,9.30
2022-11-24T06:36:05.157Z,9.80
2022-11-24T06:38:33.507Z,10.20
2022-11-24T06:41:06.668Z,9.90
2022-11-24T06:43:35.166Z,9.60
2022-11-24T06:46:03.666Z,9.40
2022-11-24T06:48:32.099Z,9.30
2022-11-24T06:51:00.991Z,9.70
2022-11-24T06:53:32.468Z,9.80
2022-11-24T06:56:01.136Z,10.10
2022-11-24T06:58:29.060Z,10.10
2022-11-24T07:00:56.991Z,10.00
2022-11-24T07:03:25.095Z,10.00
2022-11-24T07:05:57.482Z,10.40
2022-11-24T07:08:25.709Z,10.70
2022-11-24T07:10:53.576Z,11.50
2022-11-24T07:13:21.772Z,11.40
2022-11-24T07:15:49.683Z,11.30
2022-11-24T07:18:17.605Z,11.20
2022-11-24T07:20:45.622Z,11.40
2022-11-24T07:23:13.668Z,11.80
2022-11-24T07:25:41.581Z,12.20
2022-11-24T07:28:09.706Z,13.10
2022-11-24T07:30:37.703Z,13.70
2022-11-24T07:33:05.795Z,14.20
2022-11-24T07:35:33.806Z,14.90
2022-11-24T07:38:02.089Z,15.20
2022-11-24T07:40:29.959Z,15.60
2022-11-24T07:43:00.634Z,16.30
2022-11-24T07:45:28.812Z,17.00
2022-11-24T07:47:59.823Z,17.70
2022-11-24T07:50:27.784Z,18.40
2022-11-24T07:52:55.803Z,18.60
2022-11-24T07:55:23.882Z,18.60
2022-11-24T07:57:51.752Z,18.80
2022-11-24T08:00:19.849Z,19.10
2022-11-24T08:02:47.807Z,19.50
2022-11-24T08:05:15.682Z,20.10
2022-11-24T08:07:43.589Z,20.80
2022-11-24T08:10:11.577Z,20.40
2022-11-24T08:12:40.973Z,20.20
2022-11-24T08:15:11.294Z,19.70
2022-11-24T08:17:39.662Z,19.20
2022-11-24T08:20:09.063Z,18.60
2022-11-24T08:22:37.021Z,18.00
2022-11-24T08:25:05.088Z,17.60
2022-11-24T08:27:33.013Z,17.20
2022-11-24T08:30:01.030Z,16.90
2022-11-24T08:32:29.129Z,16.40
2022-11-24T08:35:13.037Z,16.10
2022-11-24T08:37:41.747Z,15.70
2022-11-24T08:40:09.991Z,15.30
2022-11-24T08:42:40.186Z,15.00
2022-11-24T08:45:20.480Z,14.80
2022-11-24T08:47:56.230Z,14.60
2022-11-24T08:50:25.054Z,14.50
2022-11-24T08:52:53.958Z,14.30
2022-11-24T08:55:21.959Z,14.10
2022-11-24T08:57:49.974Z,14.00
2022-11-24T09:00:22.771Z,13.80
2022-11-24T09:02:57.786Z,13.60
2022-11-24T09:05:50.826Z,13.50
2022-11-24T09:08:16.570Z,13.40
2022-11-24T09:10:44.533Z,13.30
2022-11-24T09:13:12.622Z,13.10
2022-11-24T09:15:40.563Z,13.10
2022-11-24T09:18:08.733Z,12.90
2022-11-24T09:20:36.739Z,12.90
2022-11-24T09:23:04.686Z,12.90
2022-11-24T09:25:33.548Z,12.90
2022-11-24T09:28:01.554Z,12.90
2022-11-24T09:30:29.976Z,13.10
2022-11-24T09:32:57.940Z,13.20
2022-11-24T09:35:26.100Z,13.30
2022-11-24T09:37:55.523Z,13.40
2022-11-24T09:40:24.696Z,13.50
2022-11-24T09:43:28.130Z,13.50
2022-11-24T09:46:06.341Z,13.60
2022-11-24T09:48:38.283Z,13.90
2022-11-24T09:51:08.650Z,14.00
2022-11-24T09:53:55.054Z,13.80
2022-11-24T09:56:25.214Z,13.60
2022-11-24T09:59:11.361Z,13.50
2022-11-24T10:01:41.827Z,13.30
2022-11-24T10:04:18.859Z,13.30
2022-11-24T10:06:46.945Z,13.30
2022-11-24T10:09:26.872Z,13.40
2022-11-24T10:12:20.848Z,13.50
2022-11-24T10:14:58.056Z,13.40
2022-11-24T10:17:45.870Z,13.40
2022-11-24T10:20:36.972Z,13.30
2022-11-24T10:23:39.593Z,13.30
2022-11-24T10:26:42.831Z,13.30
2022-11-24T10:29:16.070Z,13.40
2022-11-24T10:31:45.153Z,13.40
2022-11-24T10:34:22.420Z,13.40
2022-11-24T10:37:09.491Z,13.40
2022-11-24T10:39:41.384Z,13.30
2022-11-24T10:42:21.609Z,13.30
2022-11-24T10:44:58.987Z,13.20
2022-11-24T10:47:27.277Z,13.20
2022-11-24T10:50:03.269Z,13.10
2022-11-24T10:52:35.048Z,13.10
2022-11-24T10:55:04.515Z,13.10
2022-11-24T10:57:36.651Z,13.00
2022-11-24T11:00:20.417Z,13.00
2022-11-24T11:02:50.753Z,12.90
2022-11-24T11:05:42.831Z,12.90
2022-11-24T11:08:29.409Z,12.80
2022-11-24T11:11:15.188Z,12.70
2022-11-24T11:14:01.936Z,12.60
2022-11-24T11:16:43.934Z,12.60
2022-11-24T11:19:48.440Z,12.50
2022-11-24T11:22:24.378Z,12.40
2022-11-24T11:25:03.429Z,12.40
2022-11-24T11:27:31.413Z,12.30
2022-11-24T11:36:09.765Z,12.20
2022-11-24T11:38:38.650Z,12.20
2022-11-24T11:41:07.629Z,12.10
2022-11-24T11:43:36.600Z,12.00
2022-11-24T11:46:18.047Z,12.00
2022-11-24T11:48:50.601Z,12.00
2022-11-24T11:51:37.983Z,12.00
2022-11-24T11:54:09.822Z,11.90
2022-11-24T11:56:49.542Z,11.80
2022-11-24T11:59:36.194Z,11.70
2022-11-24T12:02:28.616Z,11.70
2022-11-24T12:05:02.506Z,11.60
2022-11-24T12:07:36.440Z,11.60
2022-11-24T12:10:16.689Z,11.60
2022-11-24T12:12:53.773Z,11.50
2022-11-24T12:15:51.100Z,11.50
2022-11-24T12:18:48.447Z,11.50
2022-11-24T12:21:27.718Z,11.30
2022-11-24T12:24:17.165Z,11.30
2022-11-24T12:26:51.217Z,11.30
2022-11-24T12:29:25.004Z,11.30
2022-11-24T12:32:19.970Z,11.30
2022-11-24T12:35:10.710Z,11.20
2022-11-24T12:38:14.297Z,11.20
2022-11-24T12:44:16.370Z,11.10
2022-11-24T12:46:59.463Z,11.10
2022-11-24T12:49:47.601Z,11.10
2022-11-24T12:52:27.109Z,10.90
2022-11-24T12:54:55.895Z,10.90
2022-11-24T12:57:41.516Z,11.00
2022-11-24T13:00:15.219Z,10.90
2022-11-24T13:02:58.050Z,10.90
2022-11-24T13:05:44.406Z,10.90
2022-11-24T13:08:12.398Z,10.90
2022-11-24T13:10:55.894Z,10.90
2022-11-24T13:13:30.588Z,10.80
2022-11-24T13:16:35.113Z,10.80
2022-11-24T13:19:02.919Z,10.80
2022-11-24T13:21:37.197Z,10.80
2022-11-24T13:24:06.573Z,10.80
2022-11-24T13:26:43.687Z,10.70
2022-11-24T13:29:30.436Z,10.70
2022-11-24T13:32:01.451Z,10.70
2022-11-24T13:34:41.567Z,10.70
2022-11-24T13:37:31.984Z,10.70
2022-11-24T13:40:23.572Z,10.70
2022-11-24T13:43:03.605Z,10.60
2022-11-24T13:45:41.317Z,10.60
2022-11-24T13:48:22.635Z,10.60
2022-11-24T13:50:51.140Z,10.60
2022-11-24T13:53:28.263Z,10.50
2022-11-24T13:56:25.578Z,10.50
2022-11-24T13:59:00.737Z,10.50
2022-11-24T14:01:30.534Z,10.50
2022-11-24T14:04:33.305Z,10.40
2022-11-24T14:07:09.397Z,10.40
2022-11-24T14:09:42.583Z,10.40
2022-11-24T14:12:16.612Z,10.30
2022-11-24T14:14:45.744Z,10.30
2022-11-24T14:17:14.132Z,10.30
2022-11-24T14:19:42.960Z,10.30
2022-11-24T14:22:19.343Z,10.30
2022-11-24T14:24:54.349Z,10.30
2022-11-24T14:27:43.677Z,10.20
2022-11-24T14:30:13.708Z,10.20
2022-11-24T14:32:42.661Z,10.10
2022-11-24T14:35:24.328Z,10.10
2022-11-24T14:37:53.252Z,10.10
2022-11-24T14:40:39.998Z,10.10
2022-11-24T14:43:37.070Z,10.00
2022-11-24T14:46:06.380Z,10.00
2022-11-24T14:48:38.636Z,10.00
2022-11-24T14:51:22.120Z,10.00
2022-11-24T14:53:52.714Z,9.90
2022-11-24T14:56:23.351Z,9.90
2022-11-24T14:58:51.612Z,9.90
2022-11-24T15:01:21.921Z,9.90
2022-11-24T15:04:11.673Z,9.80
2022-11-24T15:06:41.886Z,9.80
2022-11-24T15:09:24.258Z,9.80
2022-11-24T15:11:52.345Z,9.70
2022-11-24T15:14:31.761Z,9.70
2022-11-24T15:17:00.226Z,9.70
2022-11-24T15:19:32.814Z,9.70
2022-11-24T15:22:01.289Z,9.70
2022-11-24T15:24:29.158Z,9.70
2022-11-24T15:27:01.059Z,9.70
2022-11-24T15:29:29.158Z,9.60
2022-11-24T15:31:58.932Z,9.60
2022-11-24T15:34:27.101Z,9.60
2022-11-24T15:36:54.990Z,9.60
2022-11-24T15:39:23.003Z,9.60
2022-11-24T15:41:51.003Z,9.60
2022-11-24T15:44:19.010Z,9.50
2022-11-24T15:46:46.938Z,9.50
2022-11-24T15:49:15.037Z,9.50
2022-11-24T15:51:44.889Z,9.50
2022-11-24T15:54:14.448Z,9.50
2022-11-24T15:56:42.411Z,9.50
2022-11-24T15:59:20.648Z,9.40
2022-11-24T16:01:50.996Z,9.40
2022-11-24T16:04:19.180Z,9.40
2022-11-24T16:06:47.385Z,9.40
2022-11-24T16:09:16.445Z,9.40
2022-11-24T16:11:44.427Z,9.30
2022-11-24T16:14:12.471Z,9.30
2022-11-24T16:16:41.101Z,9.30
2022-11-24T16:19:09.597Z,9.30
2022-11-24T16:21:37.588Z,9.30
2022-11-24T16:24:05.833Z,9.30
2022-11-24T16:26:33.748Z,9.30
2022-11-24T16:29:01.754Z,9.30
2022-11-24T16:31:29.709Z,9.30
2022-11-24T16:33:57.798Z,9.30
2022-11-24T16:36:26.402Z,9.20
2022-11-24T16:38:54.687Z,9.20
2022-11-24T16:41:22.703Z,9.20
2022-11-24T16:43:50.829Z,9.20
2022-11-24T16:46:20.110Z,9.20
2022-11-24T16:48:49.268Z,9.20
2022-11-24T16:51:17.651Z,9.20
2022-11-24T16:53:45.783Z,9.20
2022-11-24T16:56:15.151Z,9.20
2022-11-24T16:58:43.584Z,9.20
2022-11-24T17:01:12.352Z,9.20
2022-11-24T17:03:41.491Z,9.20
2022-11-24T17:06:11.690Z,9.20
2022-11-24T17:08:40.628Z,9.10
2022-11-24T17:11:19.358Z,9.20
2022-11-24T17:13:47.860Z,9.10
2022-11-24T17:16:20.183Z,9.10
2022-11-24T17:18:48.474Z,9.10
2022-11-24T17:21:17.819Z,9.10
2022-11-24T17:23:46.117Z,9.10
2022-11-24T17:26:15.236Z,9.10
2022-11-24T17:28:43.477Z,9.10
2022-11-24T17:31:20.581Z,9.10
2022-11-24T17:33:52.698Z,9.10
2022-11-24T17:36:21.027Z,9.00
2022-11-24T17:38:51.127Z,9.00
2022-11-24T17:41:19.985Z,9.00
2022-11-24T17:43:51.862Z,9.00
2022-11-24T17:46:20.130Z,9.00
2022-11-24T17:48:48.370Z,8.90
2022-11-24T17:51:17.498Z,8.90
2022-11-24T17:53:46.975Z,8.90
2022-11-24T17:56:18.395Z,8.90
2022-11-24T17:58:46.477Z,8.90
2022-11-24T18:01:14.389Z,8.80
2022-11-24T18:03:42.624Z,8.80
2022-11-24T18:06:11.687Z,8.80
2022-11-24T18:08:43.160Z,8.80
2022-11-24T18:11:16.014Z,8.70
2022-11-24T18:14:01.175Z,8.80
2022-11-24T18:16:31.360Z,8.80
2022-11-24T18:19:08.747Z,8.80
2022-11-24T18:21:38.454Z,8.80
2022-11-24T18:24:06.934Z,8.70
2022-11-24T18:26:34.957Z,8.70
2022-11-24T18:29:03.082Z,8.70
2022-11-24T18:31:31.575Z,8.70
2022-11-24T18:33:59.600Z,8.70
2022-11-24T18:36:30.631Z,8.70
2022-11-24T18:39:02.697Z,8.70
2022-11-24T18:41:30.654Z,8.70
2022-11-24T18:44:00.663Z,8.70
2022-11-24T18:46:28.561Z,8.70
2022-11-24T18:48:56.552Z,8.70
2022-11-24T18:51:24.533Z,8.70
2022-11-24T18:53:58.442Z,8.70
2022-11-24T18:56:26.572Z,8.60
2022-11-24T18:58:55.326Z,8.70
2022-11-24T19:01:25.450Z,8.60
2022-11-24T19:03:54.821Z,8.60
2022-11-24T19:06:24.405Z,8.60
2022-11-24T19:08:55.704Z,8.60
2022-11-24T19:11:26.730Z,8.60
2022-11-24T19:13:55.193Z,8.60
2022-11-24T19:16:23.461Z,8.60
2022-11-24T19:18:54.278Z,8.60
2022-11-24T19:21:22.533Z,8.60
2022-11-24T19:23:50.543Z,8.50
2022-11-24T19:26:18.774Z,8.50
2022-11-24T19:28:46.920Z,8.50
2022-11-24T19:31:15.797Z,8.50
2022-11-24T19:33:44.268Z,8.50
2022-11-24T19:36:13.322Z,8.50
2022-11-24T19:38:42.246Z,8.50
2022-11-24T19:41:11.301Z,8.50
2022-11-24T19:43:39.210Z,8.50
2022-11-24T19:46:11.800Z,8.40
2022-11-24T19:48:41.673Z,8.50
2022-11-24T19:51:12.054Z,8.50
2022-11-24T19:53:39.921Z,8.50
2022-11-24T19:56:09.186Z,8.50
2022-11-24T19:58:37.507Z,8.50
2022-11-24T20:01:06.486Z,8.50
2022-11-24T20:03:34.824Z,8.40
2022-11-24T20:06:03.287Z,8.40
2022-11-24T20:08:31.973Z,8.40
2022-11-24T20:11:07.252Z,8.40
2022-11-24T20:13:36.188Z,8.40
2022-11-24T20:16:04.990Z,8.40
2022-11-24T20:18:37.567Z,8.40
2022-11-24T20:21:13.942Z,8.40
2022-11-24T20:23:42.028Z,8.30
2022-11-24T20:26:11.337Z,8.30
2022-11-24T20:28:39.492Z,8.30
2022-11-24T20:31:09.582Z,8.30
2022-11-24T20:33:37.817Z,8.30
2022-11-24T20:36:06.966Z,8.30
2022-11-24T20:38:34.954Z,8.30
2022-11-24T20:41:23.257Z,8.30
2022-11-24T20:43:51.832Z,8.30
2022-11-24T20:46:26.476Z,8.30
2022-11-24T20:48:55.342Z,8.30
2022-11-24T20:51:24.328Z,8.30
2022-11-24T20:53:53.083Z,8.30
2022-11-24T20:56:31.155Z,8.30
2022-11-24T20:58:59.813Z,8.30
2022-11-24T21:01:29.431Z,8.20
2022-11-24T21:03:58.636Z,8.20
2022-11-24T21:06:28.335Z,8.20
2022-11-24T21:09:01.977Z,8.20
2022-11-24T21:11:32.032Z,8.20
2022-11-24T21:14:00.691Z,8.20
2022-11-24T21:16:30.113Z,8.20
2022-11-24T21:18:59.579Z,8.20
2022-11-24T21:21:34.360Z,8.10
2022-11-24T21:24:03.141Z,8.20
2022-11-24T21:26:31.217Z,8.10
2022-11-24T21:28:59.095Z,8.20
2022-11-24T21:31:27.233Z,8.10
2022-11-24T21:33:55.394Z,8.10
2022-11-24T21:36:24.384Z,8.10
2022-11-24T21:38:53.200Z,8.10
2022-11-24T21:41:21.487Z,8.10
2022-11-24T21:43:50.319Z,8.00
2022-11-24T21:46:18.776Z,8.10
2022-11-24T21:48:46.807Z,8.00
2022-11-24T21:51:18.815Z,8.00
2022-11-24T21:53:47.207Z,8.00
2022-11-24T21:56:19.283Z,8.00
2022-11-24T21:58:48.425Z,8.10
2022-11-24T22:01:17.202Z,8.00
2022-11-24T22:03:46.135Z,8.00
2022-11-24T22:06:14.517Z,8.00
2022-11-24T22:08:42.578Z,8.00
2022-11-24T22:11:12.548Z,8.00
2022-11-24T22:13:40.740Z,8.00
2022-11-24T22:16:10.297Z,8.00
2022-11-24T22:18:39.386Z,8.00
2022-11-24T22:21:08.577Z,8.00
2022-11-24T22:23:36.721Z,8.00
2022-11-24T22:26:05.877Z,8.00
2022-11-24T22:28:34.474Z,8.00
2022-11-24T22:31:06.281Z,8.00
2022-11-24T22:33:34.753Z,8.00
2022-11-24T22:36:02.771Z,8.00
2022-11-24T22:38:31.060Z,7.90
2022-11-24T22:41:03.191Z,7.90
2022-11-24T22:43:34.867Z,8.00
2022-11-24T22:46:11.303Z,7.90
2022-11-24T22:48:39.994Z,8.00
2022-11-24T22:51:12.455Z,7.90
2022-11-24T22:53:40.718Z,7.90
2022-11-24T22:56:11.833Z,7.90
2022-11-24T22:58:40.321Z,7.90
2022-11-24T23:01:09.431Z,7.90
2022-11-24T23:03:37.518Z,7.90
2022-11-24T23:06:06.780Z,7.90
2022-11-24T23:08:35.423Z,7.90
2022-11-24T23:11:04.849Z,7.90
2022-11-24T23:13:32.914Z,7.90
2022-11-24T23:16:10.978Z,7.90
2022-11-24T23:18:39.584Z,7.90
2022-11-24T23:21:08.470Z,7.90
2022-11-24T23:23:36.486Z,7.90
2022-11-24T23:26:05.772Z,7.90
2022-11-24T23:28:33.969Z,7.90
2022-11-24T23:31:03.131Z,7.90
2022-11-24T23:33:31.552Z,7.90
2022-11-24T23:36:03.471Z,7.90
2022-11-24T23:38:34.677Z,7.90
2022-11-24T23:41:06.642Z,7.90
2022-11-24T23:43:35.332Z,7.90
2022-11-24T23:46:07.624Z,7.90
2022-11-24T23:48:36.223Z,7.90
2022-11-24T23:51:08.301Z,7.90
2022-11-24T23:53:36.568Z,7.90
2022-11-24T23:56:04.962Z,7.90
2022-11-24T23:58:33.430Z,7.90
